Time;durP1;ratioP1;P1;durP2;ratioP2;P2;SDS_P1;SDS_P2;PMS_P1;PMS_P2;Temp;Humidity;BMP_temperature;BMP_pressure;BME280_temperature;BME280_humidity;BME280_pressure;Samples;Min_cycle;Max_cycle;Signal;HPM_P1;HPM_P2
2023/08/03 00:00:58;;;;;;;4.55;1.35;;;;;;;18.19;73.47;95406.00;4981279;28;20059;-77
2023/08/03 00:03:26;;;;;;;2.55;1.15;;;;;;;18.19;72.94;95418.41;4981225;28;20066;-78
2023/08/03 00:05:54;;;;;;;5.75;1.25;;;;;;;18.20;72.76;95404.16;4981295;28;20038;-78
2023/08/03 00:08:21;;;;;;;2.83;1.27;;;;;;;18.19;73.62;95400.72;4981391;28;20059;-78
2023/08/03 00:10:50;;;;;;;6.47;1.42;;;;;;;18.18;73.25;95412.34;4980893;28;20039;-78
2023/08/03 00:13:18;;;;;;;2.50;1.23;;;;;;;18.19;71.82;95410.47;4981240;28;20051;-77
2023/08/03 00:15:46;;;;;;;7.22;2.75;;;;;;;18.19;71.33;95413.94;4981154;28;20027;-78
2023/08/03 00:18:13;;;;;;;4.90;1.30;;;;;;;18.20;72.32;95414.72;4981172;28;20063;-78
2023/08/03 00:20:41;;;;;;;4.10;1.42;;;;;;;18.21;73.38;95426.84;4980634;28;20075;-77
2023/08/03 00:23:09;;;;;;;2.28;0.95;;;;;;;18.21;74.19;95418.94;4981024;28;20035;-78
2023/08/03 00:25:36;;;;;;;5.82;1.33;;;;;;;18.19;73.01;95411.28;4981123;28;20074;-78
2023/08/03 00:28:05;;;;;;;7.53;1.40;;;;;;;18.17;73.02;95404.66;4981037;28;20035;-77
2023/08/03 00:30:33;;;;;;;4.43;1.45;;;;;;;18.17;72.65;95415.22;4980846;28;20035;-78
2023/08/03 00:33:01;;;;;;;5.45;1.15;;;;;;;18.16;72.82;95414.44;4980492;28;20035;-78
2023/08/03 00:35:29;;;;;;;3.72;0.90;;;;;;;18.16;72.23;95416.28;4980867;28;20067;-78
2023/08/03 00:37:56;;;;;;;6.30;1.52;;;;;;;18.16;73.28;95413.66;4980728;28;20047;-78
2023/08/03 00:40:24;;;;;;;4.25;1.58;;;;;;;18.15;72.70;95406.75;4980696;28;20039;-78
2023/08/03 00:42:51;;;;;;;4.00;1.13;;;;;;;18.14;73.35;95413.91;4980570;28;20046;-78
2023/08/03 00:45:21;;;;;;;5.10;1.23;;;;;;;18.15;73.19;95404.13;4980655;28;20031;-78
2023/08/03 00:47:48;;;;;;;6.97;1.73;;;;;;;18.15;73.30;95417.31;4980534;28;20042;-78
2023/08/03 00:50:16;;;;;;;4.22;1.30;;;;;;;18.11;71.05;95411.78;4980371;28;20041;-78
2023/08/03 00:52:44;;;;;;;3.90;1.15;;;;;;;18.11;72.33;95399.38;4980296;28;20035;-78
2023/08/03 00:55:11;;;;;;;5.35;1.77;;;;;;;18.10;69.44;95400.44;4980596;28;20035;-78
2023/08/03 00:57:39;;;;;;;4.72;1.60;;;;;;;18.10;71.37;95405.72;4980285;28;20047;-78
2023/08/03 01:00:08;;;;;;;7.28;1.45;;;;;;;18.12;72.78;95410.72;4972565;28;20426;-78
2023/08/03 01:02:37;;;;;;;5.13;1.35;;;;;;;18.13;72.40;95409.69;4966299;28;20051;-77
2023/08/03 01:05:05;;;;;;;4.45;1.55;;;;;;;18.14;73.46;95421.03;4976523;28;20100;-77
2023/08/03 01:07:34;;;;;;;2.83;1.15;;;;;;;18.12;69.21;95408.06;4972726;28;20109;-77
2023/08/03 01:10:02;;;;;;;2.65;0.95;;;;;;;18.13;71.85;95404.41;4982229;28;20495;-78
2023/08/03 01:12:30;;;;;;;5.68;1.52;;;;;;;18.16;70.74;95414.44;4973398;28;20038;-78
2023/08/03 01:14:57;;;;;;;6.50;1.70;;;;;;;18.20;73.34;95415.50;4987492;28;20046;-77
2023/08/03 01:17:25;;;;;;;4.72;1.98;;;;;;;18.21;74.17;95422.34;4980817;28;20050;-77
2023/08/03 01:19:55;;;;;;;3.60;1.42;;;;;;;18.20;73.26;95409.44;4982737;28;20051;-77
2023/08/03 01:22:23;;;;;;;4.10;1.08;;;;;;;18.20;72.70;95398.88;4974190;28;20069;-77
2023/08/03 01:24:52;;;;;;;6.72;1.70;;;;;;;18.17;72.75;95400.19;4974217;28;20058;-77
2023/08/03 01:27:20;;;;;;;7.03;1.55;;;;;;;18.17;70.00;95405.47;4975091;28;20059;-77
2023/08/03 01:29:48;;;;;;;13.93;2.28;;;;;;;18.15;68.31;95406.75;4974013;28;20047;-77
2023/08/03 01:32:15;;;;;;;8.68;1.58;;;;;;;18.13;69.08;95399.13;4973084;28;20133;-78
2023/08/03 01:34:43;;;;;;;7.13;2.03;;;;;;;18.14;71.96;95405.97;4974136;28;20065;-78
2023/08/03 01:37:11;;;;;;;3.15;1.20;;;;;;;18.11;70.47;95409.94;4973872;28;20050;-78
2023/08/03 01:39:38;;;;;;;8.07;1.45;;;;;;;18.09;71.33;95398.84;4973664;28;20050;-78
2023/08/03 01:42:08;;;;;;;5.07;1.65;;;;;;;18.07;69.61;95400.94;4974364;28;20050;-78
2023/08/03 01:44:35;;;;;;;4.45;1.20;;;;;;;18.08;68.54;95396.44;4974260;28;20117;-78
2023/08/03 01:47:03;;;;;;;4.32;1.15;;;;;;;18.07;69.55;95395.66;4974122;28;20050;-77
2023/08/03 01:49:32;;;;;;;8.90;1.48;;;;;;;18.06;67.30;95394.09;4973633;28;20090;-78
2023/08/03 01:52:00;;;;;;;8.18;1.63;;;;;;;18.08;69.50;95404.38;4973106;28;20082;-78
2023/08/03 01:54:28;;;;;;;3.35;1.25;;;;;;;18.07;69.48;95403.56;4973220;28;20050;-78
2023/08/03 01:56:56;;;;;;;6.68;1.38;;;;;;;18.07;70.54;95426.53;4966341;28;20090;-78
2023/08/03 01:59:25;;;;;;;5.85;1.35;;;;;;;18.04;68.93;95406.75;4952493;28;20126;-78
2023/08/03 02:01:53;;;;;;;3.35;1.02;;;;;;;17.99;65.17;95451.56;4952979;29;20051;-78
2023/08/03 02:04:21;;;;;;;4.63;1.20;;;;;;;17.97;66.59;95437.81;4952887;29;20051;-77
2023/08/03 02:06:51;;;;;;;7.07;1.40;;;;;;;17.94;68.09;95427.81;4954718;29;20051;-78
2023/08/03 02:09:18;;;;;;;4.50;1.25;;;;;;;17.92;68.22;95438.59;4954644;29;20051;-78
2023/08/03 02:11:46;;;;;;;4.43;1.52;;;;;;;17.92;67.58;95435.19;4954522;28;20051;-78
2023/08/03 02:14:15;;;;;;;6.10;0.85;;;;;;;17.91;67.18;95430.97;4953930;28;20103;-78
2023/08/03 02:16:44;;;;;;;5.05;1.23;;;;;;;17.90;66.75;95437.28;4954695;29;20066;-78
2023/08/03 02:19:11;;;;;;;3.28;0.60;;;;;;;17.90;66.45;95429.34;4954515;29;20079;-78
2023/08/03 02:21:39;;;;;;;6.55;1.00;;;;;;;17.89;67.14;95440.97;4954254;29;20063;-79
2023/08/03 02:24:07;;;;;;;5.13;1.13;;;;;;;17.89;67.93;95430.41;4954645;28;20051;-78
2023/08/03 02:26:34;;;;;;;7.72;1.90;;;;;;;17.89;66.71;95430.41;4954639;29;20110;-78
2023/08/03 02:29:02;;;;;;;8.10;1.40;;;;;;;17.88;65.90;95434.88;4954282;28;20051;-78
2023/08/03 02:31:30;;;;;;;4.82;1.40;;;;;;;17.87;65.89;95428.03;4953979;29;20055;-78
2023/08/03 02:33:59;;;;;;;5.10;0.90;;;;;;;17.86;63.88;95423.00;4953885;28;20055;-79
2023/08/03 02:36:27;;;;;;;5.53;1.25;;;;;;;17.86;66.14;95430.91;4954386;29;20051;-78
2023/08/03 02:38:54;;;;;;;3.78;0.73;;;;;;;17.87;63.82;95435.16;4954096;29;20091;-78
2023/08/03 02:41:22;;;;;;;3.10;0.82;;;;;;;17.89;64.69;95433.84;4954185;29;20059;-78
2023/08/03 02:43:49;;;;;;;3.10;0.90;;;;;;;17.91;66.13;95438.88;4957093;28;20109;-78
2023/08/03 02:46:17;;;;;;;5.38;0.63;;;;;;;17.91;62.46;95438.88;4958055;29;20062;-78
2023/08/03 02:48:45;;;;;;;3.80;1.05;;;;;;;17.91;65.69;95433.59;4957428;29;20492;-78
2023/08/03 02:51:14;;;;;;;2.83;0.57;;;;;;;17.92;64.59;95435.19;4973028;28;20054;-78
2023/08/03 02:53:42;;;;;;;6.90;1.40;;;;;;;17.91;63.69;95433.59;4961515;28;20055;-78
2023/08/03 02:56:09;;;;;;;4.00;1.30;;;;;;;17.92;65.90;95441.25;4957696;29;20098;-79
2023/08/03 02:58:37;;;;;;;5.50;0.70;;;;;;;17.88;61.94;95432.25;4957622;29;20072;-78
2023/08/03 03:01:04;;;;;;;5.00;1.08;;;;;;;17.88;65.81;95457.84;4957066;28;20047;-78
2023/08/03 03:03:32;;;;;;;3.90;0.60;;;;;;;17.87;63.59;95435.16;4960222;29;20070;-78
2023/08/03 03:06:00;;;;;;;4.43;1.23;;;;;;;17.84;65.12;95443.56;4963549;29;20078;-78
2023/08/03 03:08:29;;;;;;;4.30;1.08;;;;;;;17.83;65.11;95450.69;4960034;29;20504;-78
2023/08/03 03:10:57;;;;;;;2.72;0.80;;;;;;;17.83;67.06;95440.13;4957876;29;20101;-78
2023/08/03 03:13:25;;;;;;;4.20;0.80;;;;;;;17.83;67.69;95444.63;4957313;29;20098;-78
2023/08/03 03:15:52;;;;;;;2.88;0.90;;;;;;;17.83;65.99;95460.47;4956903;28;20055;-78
2023/08/03 03:18:20;;;;;;;5.05;1.35;;;;;;;17.82;66.44;95448.31;4956949;29;20087;-78
2023/08/03 03:20:48;;;;;;;3.38;1.13;;;;;;;17.77;63.60;95449.03;4956730;28;20052;-78
2023/08/03 03:23:15;;;;;;;4.47;1.08;;;;;;;17.76;64.73;95441.41;4957196;29;20494;-78
2023/08/03 03:25:44;;;;;;;3.60;0.85;;;;;;;17.76;66.31;95447.47;4957047;28;20216;-78
2023/08/03 03:28:12;;;;;;;4.28;1.15;;;;;;;17.76;65.05;95451.94;4956750;29;20103;-78
2023/08/03 03:30:39;;;;;;;6.05;1.13;;;;;;;17.75;64.58;95453.78;4956749;28;20051;-79
2023/08/03 03:33:07;;;;;;;6.03;1.00;;;;;;;17.73;64.92;95458.50;4956671;29;20051;-78
2023/08/03 03:35:35;;;;;;;3.75;0.82;;;;;;;17.70;62.81;95448.47;4957269;29;20051;-78
2023/08/03 03:38:02;;;;;;;2.78;0.93;;;;;;;17.68;62.95;95450.56;4957086;29;20059;-78
2023/08/03 03:40:31;;;;;;;3.30;0.98;;;;;;;17.66;62.65;95453.47;4957264;29;20099;-78
2023/08/03 03:43:00;;;;;;;3.95;0.85;;;;;;;17.67;67.67;95459.56;4956716;29;20051;-78
2023/08/03 03:45:29;;;;;;;3.95;1.10;;;;;;;17.66;65.02;95450.03;4957115;29;20051;-78
2023/08/03 03:47:57;;;;;;;2.38;0.70;;;;;;;17.63;64.27;95447.91;4956730;29;20498;-78
2023/08/03 03:50:25;;;;;;;5.63;0.80;;;;;;;17.62;64.44;95454.22;4956706;29;20515;-78
2023/08/03 03:52:52;;;;;;;6.40;0.80;;;;;;;17.60;63.39;95459.78;4956959;29;20062;-79
2023/08/03 03:55:20;;;;;;;4.70;1.25;;;;;;;17.60;63.32;95464.22;4956228;28;20055;-78
2023/08/03 03:57:48;;;;;;;4.95;1.17;;;;;;;17.60;67.03;95459.78;4957828;29;20471;-79
2023/08/03 04:00:17;;;;;;;4.53;1.05;;;;;;;17.58;64.20;95467.13;4956880;29;20098;-78
2023/08/03 04:02:45;;;;;;;2.00;0.85;;;;;;;17.55;64.98;95467.63;4956761;28;20051;-78
2023/08/03 04:05:12;;;;;;;5.85;1.33;;;;;;;17.54;64.63;95471.31;4956410;29;20050;-78
2023/08/03 04:07:40;;;;;;;5.28;1.20;;;;;;;17.56;65.03;95463.97;4956534;28;20184;-79
2023/08/03 04:10:08;;;;;;;4.18;0.88;;;;;;;17.57;63.59;95473.44;4956686;29;20118;-78
2023/08/03 04:12:36;;;;;;;6.88;1.77;;;;;;;17.57;65.23;95476.09;4956195;29;20055;-78
2023/08/03 04:15:04;;;;;;;5.90;1.23;;;;;;;17.58;65.96;95482.97;4956670;29;20055;-78
2023/08/03 04:17:33;;;;;;;4.85;1.20;;;;;;;17.60;68.47;95480.88;4956645;29;20114;-78
2023/08/03 04:20:01;;;;;;;5.70;0.80;;;;;;;17.59;65.25;95484.53;4956124;29;20055;-78
2023/08/03 04:22:28;;;;;;;5.30;0.88;;;;;;;17.59;66.68;95486.38;4956623;28;20142;-78
2023/08/03 04:24:56;;;;;;;6.68;1.40;;;;;;;17.60;68.01;95485.31;4956256;29;20051;-78
2023/08/03 04:27:24;;;;;;;6.30;0.98;;;;;;;17.60;64.73;95480.06;4956930;29;20062;-78
2023/08/03 04:29:51;;;;;;;3.15;1.10;;;;;;;17.60;67.61;95486.13;4956406;29;20477;-78
2023/08/03 04:32:19;;;;;;;5.60;1.15;;;;;;;17.61;67.46;95493.00;4955690;29;20083;-79
2023/08/03 04:34:48;;;;;;;8.98;1.20;;;;;;;17.60;66.27;95507.25;4955967;29;20525;-79
2023/08/03 04:37:16;;;;;;;2.50;1.05;;;;;;;17.58;66.65;95500.59;4956410;28;20106;-78
2023/08/03 04:39:43;;;;;;;2.95;1.00;;;;;;;17.55;64.42;95504.53;4956241;29;20461;-78
2023/08/03 04:42:11;;;;;;;5.32;1.20;;;;;;;17.55;66.59;95509.81;4956025;29;20597;-78
2023/08/03 04:44:38;;;;;;;4.68;1.10;;;;;;;17.54;64.47;95512.72;4956332;29;20059;-78
2023/08/03 04:47:06;;;;;;;8.23;1.38;;;;;;;17.52;64.34;95512.19;4955909;28;20043;-78
2023/08/03 04:49:34;;;;;;;4.22;0.80;;;;;;;17.54;66.08;95512.72;4955736;29;20516;-78
2023/08/03 04:52:03;;;;;;;2.88;0.60;;;;;;;17.52;67.91;95520.88;4955792;29;20513;-78
2023/08/03 04:54:31;;;;;;;2.55;0.80;;;;;;;17.50;66.08;95513.22;4955848;29;20055;-78
2023/08/03 04:56:59;;;;;;;3.42;0.90;;;;;;;17.53;67.18;95526.94;4956048;29;20114;-78
2023/08/03 04:59:27;;;;;;;2.45;0.70;;;;;;;17.51;67.58;95545.63;4955572;29;20051;-78
2023/08/03 05:01:54;;;;;;;4.72;0.90;;;;;;;17.49;65.17;95550.38;4967952;28;20046;-78
2023/08/03 05:04:22;;;;;;;2.10;0.50;;;;;;;17.49;66.83;95558.28;4958413;28;20083;-78
2023/08/03 05:06:52;;;;;;;4.43;0.60;;;;;;;17.49;66.10;95559.09;4955124;28;20097;-77
2023/08/03 05:09:21;;;;;;;3.22;0.47;;;;;;;17.47;66.15;95563.81;4970005;28;20425;-78
2023/08/03 05:11:49;;;;;;;8.43;0.77;;;;;;;17.48;66.70;95567.25;4964113;28;20050;-78
2023/08/03 05:14:16;;;;;;;1.48;0.30;;;;;;;17.48;67.46;95577.78;4982034;28;20093;-79
2023/08/03 05:19:39;;;;;;;2.92;0.40;;;;;;;17.44;66.12;95584.59;5529241;23;20419;-80
2023/08/03 05:22:07;;;;;;;1.95;0.43;;;;;;;17.40;66.94;95589.56;4983781;28;20042;-80
2023/08/03 05:24:35;;;;;;;1.17;0.30;;;;;;;17.39;66.62;95566.13;4974734;28;20457;-80
2023/08/03 05:27:03;;;;;;;5.75;0.68;;;;;;;17.38;66.26;95580.31;4974711;28;20046;-80
2023/08/03 05:29:31;;;;;;;2.58;0.50;;;;;;;17.39;66.80;95584.56;4974023;28;20047;-79
2023/08/03 05:31:59;;;;;;;2.53;0.63;;;;;;;17.38;64.46;95578.50;4974369;28;20054;-80
2023/08/03 05:34:27;;;;;;;2.10;0.60;;;;;;;17.38;63.98;95583.78;4974549;28;20408;-79
2023/08/03 05:36:54;;;;;;;0.73;0.28;;;;;;;17.39;66.73;95579.28;4975056;28;20042;-80
2023/08/03 05:39:25;;;;;;;0.65;0.40;;;;;;;17.40;65.37;95594.06;4974706;28;20487;-80
2023/08/03 05:42:01;;;;;;;2.67;0.30;;;;;;;17.39;65.37;95613.56;4975810;28;20050;-80
2023/08/03 05:44:42;;;;;;;3.10;0.45;;;;;;;17.39;66.80;95605.66;4985005;28;20058;-80
2023/08/03 05:47:11;;;;;;;9.70;0.75;;;;;;;17.38;66.64;95604.03;4990188;28;20054;-79
2023/08/03 05:49:49;;;;;;;2.10;0.73;;;;;;;17.37;66.10;95613.00;4989720;28;20066;-80
2023/08/03 05:52:16;;;;;;;2.67;0.40;;;;;;;17.37;64.73;95613.00;4973473;28;20050;-79
2023/08/03 05:54:49;;;;;;;1.88;0.30;;;;;;;17.38;62.73;95609.31;4975196;28;20401;-79
2023/08/03 05:57:18;;;;;;;;;;;;;;;17.40;66.55;95604.59;4980127;28;20051;-80
2023/08/03 05:59:47;;;;;;;3.60;0.40;;;;;;;17.41;64.35;95599.09;4976861;28;19973;-79
2023/08/03 06:02:26;;;;;;;4.25;0.60;;;;;;;17.45;65.54;95599.38;4972799;28;20058;-77
2023/08/03 06:04:54;;;;;;;1.83;0.40;;;;;;;17.51;67.35;95603.66;4971074;28;20057;-77
2023/08/03 06:07:21;;;;;;;1.48;0.28;;;;;;;17.54;67.13;95600.53;4972439;28;20153;-79
2023/08/03 06:09:49;;;;;;;3.88;0.75;;;;;;;17.57;67.27;95601.88;4972741;28;20089;-77
2023/08/03 06:12:19;;;;;;;2.42;0.60;;;;;;;17.60;65.78;95610.06;4972520;28;20484;-78
2023/08/03 06:14:46;;;;;;;4.05;0.43;;;;;;;17.62;63.78;95618.53;4972268;28;20045;-78
2023/08/03 06:17:14;;;;;;;2.33;0.40;;;;;;;17.64;63.53;95613.78;4972929;28;20047;-78
2023/08/03 06:19:43;;;;;;;3.10;0.50;;;;;;;17.65;64.39;95607.47;4975889;28;20089;-78
2023/08/03 06:22:18;;;;;;;2.47;0.38;;;;;;;17.69;67.83;95611.22;4976436;28;20508;-78
2023/08/03 06:24:45;;;;;;;4.38;0.60;;;;;;;17.71;64.30;95622.31;4976575;28;20129;-77
2023/08/03 06:27:13;;;;;;;1.52;0.60;;;;;;;17.74;63.77;95612.31;4976030;28;20093;-78
2023/08/03 06:29:44;;;;;;;1.25;0.40;;;;;;;17.78;64.93;95618.66;4974710;28;20115;-78
2023/08/03 06:32:22;;;;;;;2.05;0.38;;;;;;;17.81;66.96;95634.78;4976080;28;20047;-77
2023/08/03 06:34:50;;;;;;;2.03;0.47;;;;;;;17.84;67.28;95617.66;4976095;28;20519;-77
2023/08/03 06:37:17;;;;;;;3.60;0.63;;;;;;;17.88;67.15;95624.81;4976184;28;20463;-77
2023/08/03 06:39:49;;;;;;;4.00;0.60;;;;;;;17.90;66.98;95637.78;4976561;28;20199;-76
2023/08/03 06:42:17;;;;;;;7.13;1.13;;;;;;;17.91;67.16;95631.47;4976199;28;20117;-78
2023/08/03 06:44:46;;;;;;;2.38;0.60;;;;;;;17.91;66.34;95636.75;4976648;28;20106;-76
2023/08/03 06:47:14;;;;;;;6.68;0.65;;;;;;;17.89;65.54;95629.06;4977184;28;20472;-77
2023/08/03 06:49:41;;;;;;;1.50;0.82;;;;;;;17.90;66.19;95638.56;4977051;28;20054;-77
2023/08/03 06:52:09;;;;;;;3.03;0.70;;;;;;;17.88;65.70;95631.94;4976112;28;20050;-77
2023/08/03 06:54:36;;;;;;;1.45;0.55;;;;;;;17.86;65.27;95648.06;4975937;28;20320;-77
2023/08/03 06:57:05;;;;;;;1.73;0.30;;;;;;;17.91;65.58;95647.28;4976378;28;20137;-77
2023/08/03 06:59:32;;;;;;;3.15;0.63;;;;;;;17.96;63.10;95647.34;4975876;28;20086;-77
2023/08/03 07:02:01;;;;;;;2.60;0.60;;;;;;;18.03;64.36;95641.84;4975644;28;20062;-77
2023/08/03 07:04:29;;;;;;;5.35;0.57;;;;;;;18.06;64.66;95650.06;4974014;28;20133;-77
2023/08/03 07:06:56;;;;;;;1.95;0.45;;;;;;;18.10;65.00;95645.06;4975690;28;20121;-78
2023/08/03 07:09:25;;;;;;;0.98;0.30;;;;;;;18.11;62.09;95650.09;4975076;28;20047;-76
2023/08/03 07:11:52;;;;;;;5.05;0.57;;;;;;;18.21;64.46;95651.22;4982259;28;20054;-76
2023/08/03 07:14:20;;;;;;;5.85;0.60;;;;;;;18.26;63.32;95648.63;4975616;28;20047;-77
2023/08/03 07:16:47;;;;;;;1.67;0.50;;;;;;;18.30;62.56;95652.31;4975570;28;20055;-76
2023/08/03 07:19:18;;;;;;;4.15;0.75;;;;;;;18.32;59.94;95647.59;4975282;28;20085;-77
2023/08/03 07:21:45;;;;;;;6.43;0.70;;;;;;;18.38;59.06;95651.84;4976661;28;20137;-78
2023/08/03 07:24:13;;;;;;;1.38;0.75;;;;;;;18.46;60.48;95656.66;4977162;28;20074;-77
2023/08/03 07:26:41;;;;;;;1.55;0.50;;;;;;;18.56;61.31;95655.13;4976439;28;20524;-77
2023/08/03 07:29:09;;;;;;;1.48;0.52;;;;;;;18.62;60.69;95656.75;4975780;28;20433;-77
2023/08/03 07:31:36;;;;;;;2.55;0.68;;;;;;;18.67;60.50;95667.34;4976434;28;20484;-77
2023/08/03 07:34:04;;;;;;;0.77;0.55;;;;;;;18.72;60.78;95664.75;4976839;28;20055;-77
2023/08/03 07:36:33;;;;;;;4.35;0.73;;;;;;;18.79;60.32;95670.63;4975562;28;20046;-77
2023/08/03 07:39:00;;;;;;;3.05;0.60;;;;;;;18.86;60.87;95671.19;4957519;28;20134;-77
2023/08/03 07:41:28;;;;;;;2.67;0.40;;;;;;;18.93;60.26;95660.38;4967138;28;20051;-77
2023/08/03 07:43:55;;;;;;;4.93;0.75;;;;;;;18.94;57.91;95672.56;4975565;28;20050;-77
2023/08/03 07:46:23;;;;;;;3.03;0.50;;;;;;;18.97;56.28;95672.03;4975127;28;20082;-77
2023/08/03 07:48:51;;;;;;;4.53;0.68;;;;;;;19.03;58.44;95670.22;4975212;28;20109;-76
2023/08/03 07:51:18;;;;;;;2.70;0.60;;;;;;;19.08;59.56;95668.38;4975222;28;20105;-76
2023/08/03 07:53:50;;;;;;;2.17;0.80;;;;;;;19.11;56.56;95669.69;4975192;28;20058;-76
2023/08/03 07:56:19;;;;;;;0.70;0.32;;;;;;;19.16;59.86;95679.53;4975405;28;20503;-77
2023/08/03 07:58:47;;;;;;;2.85;0.30;;;;;;;19.19;57.71;95677.13;4974803;28;20047;-77
2023/08/03 08:01:15;;;;;;;3.78;0.80;;;;;;;19.24;56.70;95671.88;4974563;28;20047;-77
2023/08/03 08:03:43;;;;;;;1.67;0.55;;;;;;;19.30;57.80;95668.19;4975031;28;20050;-77
2023/08/03 08:06:12;;;;;;;3.45;0.88;;;;;;;19.35;58.36;95668.22;4974695;28;20051;-77
2023/08/03 08:08:40;;;;;;;2.92;0.57;;;;;;;19.38;56.89;95682.75;4975036;28;20051;-76
2023/08/03 08:11:10;;;;;;;2.30;0.55;;;;;;;19.40;58.55;95685.16;4974675;28;20516;-77
2023/08/03 08:13:40;;;;;;;1.85;0.50;;;;;;;19.40;58.80;95682.50;4975140;28;20047;-76
2023/08/03 08:16:09;;;;;;;3.95;0.70;;;;;;;19.37;55.82;95677.72;4974299;28;20055;-77
2023/08/03 08:18:37;;;;;;;2.45;0.60;;;;;;;19.35;56.08;95694.66;4974379;28;20055;-76
2023/08/03 08:21:08;;;;;;;2.38;0.73;;;;;;;19.34;54.47;95703.63;4974685;28;20428;-76
2023/08/03 08:23:36;;;;;;;2.78;0.85;;;;;;;19.36;54.87;95690.16;4974423;28;20571;-76
2023/08/03 08:26:11;;;;;;;0.98;0.60;;;;;;;19.41;57.34;95708.69;4974657;28;20090;-76
2023/08/03 08:28:40;;;;;;;2.03;0.80;;;;;;;19.41;57.22;95699.97;4970871;28;20051;-76
2023/08/03 08:31:12;;;;;;;1.92;0.60;;;;;;;19.41;55.89;95700.75;4956951;29;20047;-77
2023/08/03 08:33:40;;;;;;;2.78;1.08;;;;;;;19.44;57.44;95707.34;4970356;28;20058;-76
2023/08/03 08:36:07;;;;;;;5.78;0.73;;;;;;;19.50;57.65;95730.13;4974947;28;20094;-76
2023/08/03 08:38:35;;;;;;;3.72;0.47;;;;;;;19.55;57.48;95719.59;4974883;28;20055;-77
2023/08/03 08:41:03;;;;;;;3.20;0.85;;;;;;;19.56;56.75;95707.94;4974617;28;20051;-76
2023/08/03 08:43:32;;;;;;;3.10;0.52;;;;;;;19.56;55.79;95729.88;4974500;28;20527;-76
2023/08/03 08:46:00;;;;;;;1.48;0.55;;;;;;;19.61;55.58;95718.53;4974589;28;20089;-77
2023/08/03 08:48:28;;;;;;;4.03;0.52;;;;;;;19.68;55.83;95708.50;4988892;28;20054;-77
2023/08/03 08:51:01;;;;;;;2.00;0.50;;;;;;;19.74;54.75;95712.78;4986991;28;20055;-77
2023/08/03 08:53:31;;;;;;;4.72;0.50;;;;;;;19.78;55.67;95720.19;4981421;28;20054;-76
2023/08/03 08:56:19;;;;;;;2.70;0.70;;;;;;;19.86;55.77;95717.03;4980876;28;20043;-77
2023/08/03 08:58:51;;;;;;;2.95;0.68;;;;;;;19.90;56.16;95726.06;4979059;28;20078;-77
2023/08/03 09:01:21;;;;;;;1.33;0.32;;;;;;;19.93;54.33;95702.47;4979066;28;20085;-77
2023/08/03 09:03:51;;;;;;;2.35;0.43;;;;;;;20.00;53.58;95719.97;4979271;28;20162;-76
2023/08/03 09:06:22;;;;;;;2.30;0.30;;;;;;;20.11;53.99;95719.69;4976162;28;20059;-76
2023/08/03 09:08:54;;;;;;;1.67;0.32;;;;;;;20.15;52.97;95709.38;4973744;28;20051;-76
2023/08/03 09:11:39;;;;;;;3.97;0.60;;;;;;;20.24;53.61;95715.75;4974218;28;20055;-77
2023/08/03 09:14:09;;;;;;;3.63;0.38;;;;;;;20.27;54.16;95709.94;4973774;28;20427;-76
2023/08/03 09:16:38;;;;;;;3.53;1.02;;;;;;;20.27;55.44;95731.13;4973490;28;20038;-76
2023/08/03 09:19:05;;;;;;;7.63;0.93;;;;;;;20.27;53.54;95719.72;4973307;28;20479;-76
2023/08/03 09:21:33;;;;;;;10.02;0.93;;;;;;;20.30;55.30;95717.34;4976558;28;20050;-76
2023/08/03 09:24:16;;;;;;;7.15;1.13;;;;;;;20.43;55.58;95731.91;4994636;28;20042;-76
2023/08/03 09:26:47;;;;;;;1.48;0.45;;;;;;;20.45;53.18;95729.78;4973390;28;20074;-76
2023/08/03 09:29:19;;;;;;;4.35;1.08;;;;;;;20.46;53.80;95741.19;4980505;28;20114;-78
2023/08/03 09:32:00;;;;;;;2.28;0.88;;;;;;;20.52;54.27;95732.97;4990414;28;20119;-78
2023/08/03 09:34:35;;;;;;;2.55;0.60;;;;;;;20.65;54.07;95741.47;4984432;28;20054;-77
2023/08/03 09:37:07;;;;;;;2.55;0.50;;;;;;;20.69;53.17;95747.84;4975157;28;20047;-76
2023/08/03 09:39:38;;;;;;;0.70;0.30;;;;;;;20.77;51.40;95744.63;4974109;28;20050;-76
2023/08/03 09:42:09;;;;;;;1.30;0.57;;;;;;;20.88;52.72;95750.69;4974582;28;20181;-77
2023/08/03 09:45:00;;;;;;;3.03;0.57;;;;;;;20.97;52.00;95755.22;4973957;28;20051;-76
2023/08/03 09:47:28;;;;;;;0.85;0.20;;;;;;;21.04;50.08;95754.94;4973719;28;20051;-76
2023/08/03 09:49:56;;;;;;;2.00;0.32;;;;;;;21.10;49.41;95753.03;4973010;28;20130;-77
2023/08/03 09:52:27;;;;;;;2.78;0.47;;;;;;;21.15;49.37;95774.25;4972565;28;20059;-77
2023/08/03 09:55:05;;;;;;;0.43;0.10;;;;;;;21.23;48.90;95760.47;4971329;28;20081;-77
2023/08/03 09:57:39;;;;;;;1.42;0.30;;;;;;;21.29;48.54;95764.66;4973646;28;20051;-77
2023/08/03 10:00:12;;;;;;;0.40;0.28;;;;;;;21.35;51.27;95770.75;4973536;28;20110;-76
2023/08/03 10:02:45;;;;;;;2.42;0.38;;;;;;;21.46;51.71;95776.84;4973218;28;20058;-76
2023/08/03 10:05:18;;;;;;;0.68;0.30;;;;;;;21.48;50.05;95770.19;4973235;28;20113;-76
2023/08/03 10:07:58;;;;;;;1.10;0.20;;;;;;;21.46;50.57;95782.16;4973182;28;20441;-77
2023/08/03 10:10:34;;;;;;;3.90;0.45;;;;;;;21.51;51.62;95771.50;4958029;29;20457;-83
2023/08/03 10:13:04;;;;;;;0.68;0.30;;;;;;;21.60;52.08;95799.88;4960847;28;20059;-82
2023/08/03 10:15:35;;;;;;;1.05;0.52;;;;;;;21.64;51.71;95781.53;4965690;28;20496;-84
2023/08/03 10:18:05;;;;;;;2.60;0.30;;;;;;;21.69;51.11;95802.78;4983778;28;20074;-83
2023/08/03 10:20:34;;;;;;;0.68;0.30;;;;;;;;;;4978212;28;20128;-83
2023/08/03 10:23:10;;;;;;;1.98;0.40;;;;;;;21.83;53.59;95791.56;4976144;28;20492;-82
2023/08/03 10:25:54;;;;;;;0.90;0.32;;;;;;;21.92;51.88;95789.91;4974890;28;20077;-82
2023/08/03 10:28:23;;;;;;;1.85;0.30;;;;;;;21.94;49.86;95785.91;4975140;28;20047;-82
2023/08/03 10:31:10;;;;;;;0.90;0.30;;;;;;;21.94;50.62;95793.88;4974692;28;20098;-83
2023/08/03 10:34:15;;;;;;;0.88;0.35;;;;;;;21.91;48.71;95781.16;4974984;28;20125;-83
2023/08/03 10:36:48;;;;;;;1.80;0.22;;;;;;;21.93;51.60;95784.34;4974956;28;20042;-83
2023/08/03 10:39:51;;;;;;;0.30;0.10;;;;;;;21.96;48.91;95780.34;4975073;28;20050;-83
2023/08/03 10:42:27;;;;;;;0.20;0.20;;;;;;;21.96;49.76;95793.63;4974667;28;20051;-83
2023/08/03 10:45:30;;;;;;;2.30;0.30;;;;;;;21.99;47.46;95771.81;4977517;28;20075;-84
2023/08/03 10:48:17;;;;;;;2.85;0.20;;;;;;;22.01;48.85;95798.91;4965934;28;20508;-83
2023/08/03 10:50:58;;;;;;;1.33;0.30;;;;;;;22.04;50.23;95786.94;4975076;28;20054;-79
2023/08/03 10:53:26;;;;;;;0.82;0.25;;;;;;;22.11;50.69;95792.75;4974731;28;20047;-79
2023/08/03 10:56:05;;;;;;;1.40;0.32;;;;;;;22.16;51.43;95795.38;4975486;28;20098;-80
2023/08/03 10:58:43;;;;;;;0.38;0.20;;;;;;;22.22;51.18;95796.94;4973451;28;20085;-76
2023/08/03 11:01:16;;;;;;;0.93;0.32;;;;;;;22.29;47.76;95788.66;4971401;28;20051;-77
2023/08/03 11:03:43;;;;;;;0.65;0.28;;;;;;;22.40;48.37;95776.91;4973054;28;20050;-75
2023/08/03 11:06:11;;;;;;;1.13;0.20;;;;;;;22.50;48.77;95779.50;4975617;28;20054;-76
2023/08/03 11:08:39;;;;;;;1.45;0.38;;;;;;;22.61;48.85;95778.34;4974717;28;20109;-75
2023/08/03 11:11:10;;;;;;;1.90;0.40;;;;;;;22.66;47.32;95785.47;4975307;28;20051;-75
2023/08/03 11:13:38;;;;;;;0.82;0.20;;;;;;;22.63;45.75;95799.34;4975610;28;20524;-76
2023/08/03 11:16:09;;;;;;;1.17;0.20;;;;;;;22.57;48.56;95803.09;4975435;28;20098;-75
2023/08/03 11:18:38;;;;;;;0.95;0.22;;;;;;;22.54;48.53;95790.34;4975332;28;20047;-75
2023/08/03 11:21:08;;;;;;;2.20;0.50;;;;;;;22.57;48.29;95790.59;4974679;28;20051;-75
2023/08/03 11:23:36;;;;;;;1.70;0.25;;;;;;;22.62;46.82;95782.56;4974839;28;20109;-75
2023/08/03 11:26:06;;;;;;;1.55;0.10;;;;;;;22.68;50.09;95782.53;4975511;28;20048;-75
2023/08/03 11:28:39;;;;;;;1.02;0.20;;;;;;;22.78;49.48;95785.09;4975487;28;20129;-75
2023/08/03 11:31:15;;;;;;;1.30;0.10;;;;;;;22.88;47.25;95800.97;4974987;28;20097;-76
2023/08/03 11:33:49;;;;;;;0.20;0.10;;;;;;;22.92;50.06;95788.72;4981024;28;20082;-75
2023/08/03 11:36:17;;;;;;;0.80;0.03;;;;;;;22.91;48.57;95781.00;4982260;28;20146;-76
2023/08/03 11:38:45;;;;;;;4.32;1.35;;;;;;;22.86;46.33;95791.69;4975562;28;20051;-75
2023/08/03 11:41:14;;;;;;;1.30;0.20;;;;;;;22.82;50.76;95791.44;4975172;28;20424;-75
2023/08/03 11:43:44;;;;;;;0.88;0.20;;;;;;;22.78;46.65;95798.38;4975183;28;20519;-75
2023/08/03 11:46:11;;;;;;;1.15;0.40;;;;;;;22.78;49.52;95793.06;4974883;28;20050;-76
2023/08/03 11:48:44;;;;;;;3.92;0.32;;;;;;;22.82;50.63;95802.09;4975104;28;20519;-76